createdAt,value
2023-08-23T00:00:20.412Z,5.68
2023-08-23T00:02:48.951Z,5.32
2023-08-23T00:05:17.809Z,5.45
2023-08-23T00:07:46.739Z,5.53
2023-08-23T00:10:17.650Z,5.47
2023-08-23T00:12:46.719Z,5.65
2023-08-23T00:15:15.647Z,5.63
2023-08-23T00:17:44.446Z,5.20
2023-08-23T00:20:14.244Z,5.28
2023-08-23T00:22:42.975Z,5.00
2023-08-23T00:25:11.648Z,5.57
2023-08-23T00:27:41.982Z,5.60
2023-08-23T00:30:11.635Z,5.60
2023-08-23T00:32:41.111Z,5.50
2023-08-23T00:35:10.321Z,5.30
2023-08-23T00:37:39.813Z,5.50
2023-08-23T00:40:11.349Z,5.90
2023-08-23T00:42:41.801Z,5.97
2023-08-23T00:45:11.898Z,5.50
2023-08-23T00:47:41.440Z,5.95
2023-08-23T00:50:10.717Z,5.93
2023-08-23T00:52:52.147Z,6.22
2023-08-23T00:55:23.206Z,6.30
2023-08-23T00:57:56.013Z,6.15
2023-08-23T01:00:25.005Z,6.70
2023-08-23T01:02:54.754Z,5.95
2023-08-23T01:05:29.061Z,6.32
2023-08-23T01:08:04.966Z,6.13
2023-08-23T01:10:55.199Z,6.40
2023-08-23T01:13:32.442Z,6.68
2023-08-23T01:16:02.382Z,6.50
2023-08-23T01:18:33.091Z,6.53
2023-08-23T01:21:04.905Z,6.53
2023-08-23T01:23:36.182Z,6.47
2023-08-23T01:26:06.429Z,6.60
2023-08-23T01:28:35.414Z,6.22
2023-08-23T01:31:09.114Z,6.65
2023-08-23T01:33:42.765Z,6.90
2023-08-23T01:36:19.540Z,6.22
2023-08-23T01:38:50.687Z,6.50
2023-08-23T01:41:19.876Z,6.82
2023-08-23T01:43:49.596Z,6.47
2023-08-23T01:46:18.583Z,6.13
2023-08-23T01:48:47.484Z,6.50
2023-08-23T01:51:16.267Z,6.20
2023-08-23T01:53:45.126Z,6.63
2023-08-23T01:56:15.483Z,6.30
2023-08-23T01:58:44.508Z,6.75
2023-08-23T02:01:13.352Z,6.43
2023-08-23T02:03:42.144Z,7.05
2023-08-23T02:06:11.223Z,7.13
2023-08-23T02:08:40.823Z,6.68
2023-08-23T02:11:09.628Z,6.80
2023-08-23T02:13:39.962Z,7.30
2023-08-23T02:16:08.769Z,7.05
2023-08-23T02:18:37.618Z,6.35
2023-08-23T02:21:06.424Z,7.32
2023-08-23T02:23:36.670Z,7.00
2023-08-23T02:26:05.599Z,7.20
2023-08-23T02:28:34.477Z,7.13
2023-08-23T02:31:05.429Z,8.02
2023-08-23T02:33:34.523Z,7.40
2023-08-23T02:36:03.302Z,7.57
2023-08-23T02:38:32.488Z,7.80
2023-08-23T02:41:01.596Z,7.60
2023-08-23T02:43:30.244Z,7.53
2023-08-23T02:45:59.209Z,7.00
2023-08-23T02:48:30.652Z,7.80
2023-08-23T02:51:00.993Z,7.95
2023-08-23T02:53:29.727Z,7.43
2023-08-23T02:55:58.434Z,7.95
2023-08-23T02:58:27.074Z,7.32
2023-08-23T03:00:57.672Z,7.35
2023-08-23T03:03:26.457Z,7.65
2023-08-23T03:05:58.232Z,7.93
2023-08-23T03:08:27.953Z,7.90
2023-08-23T03:11:04.549Z,7.78
2023-08-23T03:13:33.568Z,8.50
2023-08-23T03:16:02.969Z,7.75
2023-08-23T03:18:32.296Z,8.00
2023-08-23T03:21:02.730Z,8.30
2023-08-23T03:23:31.716Z,8.73
2023-08-23T03:26:00.960Z,8.48
2023-08-23T03:28:29.694Z,9.50
2023-08-23T03:31:04.140Z,8.82
2023-08-23T03:33:33.933Z,8.30
2023-08-23T03:36:04.365Z,8.23
2023-08-23T03:38:33.202Z,9.13
2023-08-23T03:41:01.872Z,8.43
2023-08-23T03:43:31.251Z,9.10
2023-08-23T03:46:00.032Z,9.30
2023-08-23T03:48:29.025Z,9.88
2023-08-23T03:51:00.621Z,8.75
2023-08-23T03:53:31.357Z,9.27
2023-08-23T03:56:00.694Z,9.15
2023-08-23T03:58:31.593Z,9.23
2023-08-23T04:01:00.308Z,9.50
2023-08-23T04:03:29.462Z,8.73
2023-08-23T04:06:00.117Z,8.85
2023-08-23T04:15:58.961Z,8.35
2023-08-23T04:18:27.815Z,7.95
2023-08-23T04:21:01.905Z,8.73
2023-08-23T04:23:31.758Z,8.35
2023-08-23T04:26:01.428Z,7.30
2023-08-23T04:28:30.582Z,8.05
2023-08-23T04:31:04.516Z,7.63
2023-08-23T04:33:48.610Z,7.63
2023-08-23T04:36:18.157Z,7.43
2023-08-23T04:38:47.062Z,7.72
2023-08-23T04:41:16.058Z,7.65
2023-08-23T04:43:44.933Z,7.78
2023-08-23T04:46:15.612Z,7.03
2023-08-23T04:48:45.380Z,8.27
2023-08-23T04:51:14.660Z,7.28
2023-08-23T04:53:43.384Z,6.93
2023-08-23T04:56:12.997Z,7.45
2023-08-23T04:58:41.722Z,7.18
2023-08-23T05:01:11.209Z,7.70
2023-08-23T05:03:43.804Z,7.55
2023-08-23T05:06:12.496Z,8.77
2023-08-23T05:08:41.218Z,8.40
2023-08-23T05:11:14.521Z,7.75
2023-08-23T05:13:43.448Z,7.28
2023-08-23T05:16:15.024Z,8.02
2023-08-23T05:18:45.577Z,7.72
2023-08-23T05:21:14.498Z,7.78
2023-08-23T05:23:43.459Z,8.10
2023-08-23T05:26:12.142Z,7.35
2023-08-23T05:28:41.184Z,7.25
2023-08-23T05:31:10.054Z,7.43
2023-08-23T05:33:40.161Z,6.88
2023-08-23T05:36:10.586Z,6.72
2023-08-23T05:38:39.835Z,6.88
2023-08-23T05:41:09.336Z,7.07
2023-08-23T05:43:38.229Z,6.90
2023-08-23T05:46:07.125Z,6.70
2023-08-23T05:48:37.477Z,6.10
2023-08-23T05:51:07.237Z,6.85
2023-08-23T05:53:37.400Z,6.20
2023-08-23T05:56:07.489Z,6.88
2023-08-23T05:58:36.217Z,6.90
2023-08-23T06:01:04.918Z,6.95
2023-08-23T06:03:33.950Z,7.00
2023-08-23T06:06:02.876Z,6.50
2023-08-23T06:08:31.682Z,7.35
2023-08-23T06:11:01.888Z,7.35
2023-08-23T06:13:30.639Z,6.88
2023-08-23T06:15:59.535Z,6.65
2023-08-23T06:18:28.347Z,6.25
2023-08-23T06:20:57.101Z,7.22
2023-08-23T06:23:26.199Z,6.82
2023-08-23T06:26:01.877Z,6.85
2023-08-23T06:28:30.646Z,6.60
2023-08-23T06:30:59.567Z,6.45
2023-08-23T06:33:28.406Z,6.90
2023-08-23T06:35:57.251Z,6.50
2023-08-23T06:38:25.921Z,6.40
2023-08-23T06:40:54.663Z,6.60
2023-08-23T06:43:27.555Z,6.80
2023-08-23T06:45:56.506Z,6.13
2023-08-23T06:48:25.270Z,6.43
2023-08-23T06:50:54.171Z,6.00
2023-08-23T06:53:23.118Z,6.32
2023-08-23T06:55:52.104Z,6.07
2023-08-23T06:58:20.865Z,6.18
2023-08-23T07:00:51.785Z,6.00
2023-08-23T07:03:21.026Z,7.07
2023-08-23T07:05:50.108Z,6.45
2023-08-23T07:08:19.118Z,6.30
2023-08-23T07:10:47.872Z,6.25
2023-08-23T07:13:16.564Z,6.65
2023-08-23T07:15:45.223Z,6.45
2023-08-23T07:18:15.588Z,6.63
2023-08-23T07:20:44.354Z,6.30
2023-08-23T07:23:13.067Z,6.13
2023-08-23T07:25:43.704Z,6.03
2023-08-23T07:28:12.992Z,6.30
2023-08-23T07:30:46.602Z,5.97
2023-08-23T07:33:16.860Z,5.30
2023-08-23T07:35:45.787Z,5.55
2023-08-23T07:38:14.433Z,5.38
2023-08-23T07:40:43.225Z,5.85
2023-08-23T07:43:12.014Z,5.57
2023-08-23T07:45:40.796Z,4.97
2023-08-23T07:48:09.713Z,5.78
2023-08-23T07:50:40.109Z,5.13
2023-08-23T07:53:08.879Z,5.20
2023-08-23T07:55:37.715Z,5.18
2023-08-23T07:58:06.848Z,5.07
2023-08-23T08:00:35.495Z,5.30
2023-08-23T08:03:05.025Z,5.50
2023-08-23T08:05:35.052Z,5.07
2023-08-23T08:08:08.960Z,5.47
2023-08-23T08:10:38.928Z,5.05
2023-08-23T08:13:08.501Z,5.43
2023-08-23T08:15:38.211Z,5.13
2023-08-23T08:18:07.423Z,4.70
2023-08-23T08:20:36.565Z,4.90
2023-08-23T08:23:07.221Z,4.82
2023-08-23T08:25:35.983Z,5.28
2023-08-23T08:28:05.139Z,5.10
2023-08-23T08:30:34.080Z,5.03
2023-08-23T08:33:02.973Z,5.53
2023-08-23T08:35:31.975Z,4.63
2023-08-23T08:38:00.708Z,5.00
2023-08-23T08:40:31.965Z,5.07
2023-08-23T08:43:01.387Z,5.47
2023-08-23T08:45:30.229Z,5.15
2023-08-23T08:47:59.162Z,5.07
2023-08-23T08:50:31.877Z,5.30
2023-08-23T08:53:02.428Z,4.90
2023-08-23T08:55:33.076Z,4.95
2023-08-23T08:58:02.800Z,5.25
2023-08-23T09:00:35.145Z,5.15
2023-08-23T09:03:04.694Z,4.72
2023-08-23T09:05:34.309Z,5.57
2023-08-23T09:08:03.269Z,5.38
2023-08-23T09:10:33.586Z,4.78
2023-08-23T09:13:02.477Z,5.38
2023-08-23T09:15:33.130Z,5.00
2023-08-23T09:18:02.187Z,4.85
2023-08-23T09:20:30.973Z,5.13
2023-08-23T09:22:59.814Z,5.30
2023-08-23T09:25:29.577Z,4.93
2023-08-23T09:28:00.128Z,4.90
2023-08-23T09:30:29.814Z,4.72
2023-08-23T09:33:00.075Z,4.30
2023-08-23T09:35:30.755Z,4.50
2023-08-23T09:37:59.515Z,4.80
2023-08-23T09:40:28.988Z,4.30
2023-08-23T09:43:00.331Z,4.13
2023-08-23T09:45:30.184Z,3.25
2023-08-23T09:48:02.336Z,3.30
2023-08-23T09:50:31.323Z,3.58
2023-08-23T09:53:05.605Z,3.30
2023-08-23T09:55:35.924Z,2.97
2023-08-23T09:58:06.633Z,3.13
2023-08-23T10:00:37.025Z,3.40
2023-08-23T10:03:07.024Z,3.40
2023-08-23T10:05:37.632Z,3.70
2023-08-23T10:08:07.360Z,3.90
2023-08-23T10:10:36.883Z,4.22
2023-08-23T10:13:08.944Z,4.25
2023-08-23T10:15:41.476Z,3.67
2023-08-23T10:18:13.807Z,4.22
2023-08-23T10:20:44.691Z,3.88
2023-08-23T10:23:14.421Z,3.95
2023-08-23T10:25:44.644Z,3.70
2023-08-23T10:28:18.020Z,3.60
2023-08-23T10:30:52.980Z,3.75
2023-08-23T10:33:24.119Z,3.75
2023-08-23T10:35:52.915Z,3.60
2023-08-23T10:38:24.339Z,3.70
2023-08-23T10:40:53.116Z,3.90
2023-08-23T10:43:23.501Z,3.95
2023-08-23T10:45:53.717Z,3.80
2023-08-23T10:48:24.574Z,3.80
2023-08-23T10:50:55.660Z,3.83
2023-08-23T10:53:28.445Z,3.63
2023-08-23T10:55:58.444Z,4.05
2023-08-23T10:58:28.819Z,4.28
2023-08-23T11:00:57.637Z,4.07
2023-08-23T11:03:27.470Z,3.80
2023-08-23T11:05:57.114Z,3.63
2023-08-23T11:08:26.060Z,3.50
2023-08-23T11:10:54.958Z,3.75
2023-08-23T11:13:23.805Z,3.78
2023-08-23T11:15:54.320Z,3.60
2023-08-23T11:18:24.188Z,3.55
2023-08-23T11:20:56.653Z,3.40
2023-08-23T11:23:25.492Z,3.75
2023-08-23T11:25:55.221Z,3.70
2023-08-23T11:28:24.029Z,3.95
2023-08-23T11:30:54.595Z,4.13
2023-08-23T11:33:23.465Z,3.88
2023-08-23T11:35:52.299Z,3.75
2023-08-23T11:38:21.183Z,3.58
2023-08-23T11:40:50.592Z,3.70
2023-08-23T11:43:22.829Z,3.72
2023-08-23T11:45:54.125Z,3.60
2023-08-23T11:48:26.518Z,3.80
2023-08-23T11:50:55.608Z,4.13
2023-08-23T11:53:24.567Z,3.40
2023-08-23T11:55:53.698Z,3.28
2023-08-23T11:58:22.444Z,3.58
2023-08-23T12:00:54.425Z,3.40
2023-08-23T12:03:23.328Z,3.70
2023-08-23T12:05:52.326Z,3.75
2023-08-23T12:08:21.132Z,4.00
2023-08-23T12:10:50.490Z,3.22
2023-08-23T12:13:19.312Z,3.30
2023-08-23T12:15:48.046Z,3.20
2023-08-23T12:18:18.262Z,3.33
2023-08-23T12:20:48.446Z,3.10
2023-08-23T12:23:17.567Z,3.40
2023-08-23T12:25:46.278Z,3.42
2023-08-23T12:28:15.884Z,3.33
2023-08-23T12:30:44.519Z,3.63
2023-08-23T12:33:13.583Z,3.35
2023-08-23T12:35:44.209Z,3.58
2023-08-23T12:38:12.880Z,3.13
2023-08-23T12:40:41.787Z,3.70
2023-08-23T12:43:10.449Z,3.20
2023-08-23T12:45:39.297Z,3.70
2023-08-23T12:48:11.183Z,3.40
2023-08-23T12:50:39.894Z,3.10
2023-08-23T12:53:10.067Z,3.58
2023-08-23T12:55:39.055Z,3.13
2023-08-23T12:58:07.953Z,2.90
2023-08-23T13:00:36.638Z,2.90
2023-08-23T13:03:06.066Z,3.15
2023-08-23T13:05:35.583Z,3.22
2023-08-23T13:08:04.930Z,3.25
2023-08-23T13:10:35.740Z,2.90
2023-08-23T13:13:04.478Z,3.78
2023-08-23T13:15:33.353Z,3.25
2023-08-23T13:18:02.739Z,3.28
2023-08-23T13:20:31.523Z,3.15
2023-08-23T13:23:00.475Z,3.10
2023-08-23T13:25:29.242Z,3.05
2023-08-23T13:27:59.606Z,2.95
2023-08-23T13:30:29.503Z,2.90
2023-08-23T13:32:58.317Z,2.90
2023-08-23T13:35:27.329Z,2.95
2023-08-23T13:37:56.003Z,2.85
2023-08-23T13:40:24.755Z,3.22
2023-08-23T13:43:01.923Z,3.00
2023-08-23T13:45:40.329Z,2.80
2023-08-23T13:48:09.632Z,2.90
2023-08-23T13:50:38.672Z,3.08
2023-08-23T13:53:07.765Z,2.95
2023-08-23T13:55:36.356Z,2.83
2023-08-23T13:58:05.302Z,2.90
2023-08-23T14:00:34.227Z,2.90
2023-08-23T14:03:04.752Z,2.97
2023-08-23T14:05:33.779Z,2.67
2023-08-23T14:08:02.686Z,2.30
2023-08-23T14:10:33.930Z,2.67
2023-08-23T14:13:04.464Z,2.65
2023-08-23T14:15:33.644Z,2.78
2023-08-23T14:18:03.955Z,2.40
2023-08-23T14:20:32.909Z,2.60
2023-08-23T14:23:02.043Z,2.40
2023-08-23T14:25:30.780Z,2.60
2023-08-23T14:27:59.565Z,2.47
2023-08-23T14:30:28.570Z,2.53
2023-08-23T14:32:57.443Z,2.30
2023-08-23T14:35:28.133Z,2.25
2023-08-23T14:37:56.859Z,2.50
2023-08-23T14:40:25.885Z,2.17
2023-08-23T14:42:54.700Z,2.30
2023-08-23T14:45:23.486Z,2.53
2023-08-23T14:47:52.684Z,2.60
2023-08-23T14:50:23.461Z,2.60
2023-08-23T14:52:54.624Z,2.40
2023-08-23T14:55:24.025Z,2.50
2023-08-23T14:57:52.731Z,2.70
2023-08-23T15:00:21.990Z,2.75
2023-08-23T15:02:50.754Z,2.20
2023-08-23T15:05:19.705Z,2.40
2023-08-23T15:07:48.894Z,2.55
2023-08-23T15:10:20.206Z,2.55
2023-08-23T15:12:49.069Z,2.40
2023-08-23T15:15:17.986Z,2.67
2023-08-23T15:17:47.319Z,2.60
2023-08-23T15:20:17.112Z,2.58
2023-08-23T15:22:45.904Z,2.55
2023-08-23T15:25:14.818Z,2.40
2023-08-23T15:27:45.015Z,2.60
2023-08-23T15:30:14.416Z,2.40
2023-08-23T15:32:43.564Z,2.50
2023-08-23T15:35:12.423Z,2.60
2023-08-23T15:37:41.455Z,2.50
2023-08-23T15:40:12.403Z,2.70
2023-08-23T15:42:42.804Z,2.70
2023-08-23T15:45:13.349Z,2.50
2023-08-23T15:47:42.223Z,2.70
2023-08-23T15:50:11.799Z,2.40
2023-08-23T15:52:40.994Z,2.47
2023-08-23T15:55:11.234Z,2.70
2023-08-23T15:57:42.879Z,2.53
2023-08-23T16:00:14.961Z,2.72
2023-08-23T16:02:43.966Z,2.45
2023-08-23T16:05:13.344Z,2.30
2023-08-23T16:07:42.208Z,2.50
2023-08-23T16:10:12.361Z,2.53
2023-08-23T16:12:41.297Z,2.58
2023-08-23T16:15:10.770Z,2.22
2023-08-23T16:17:41.151Z,2.47
2023-08-23T16:20:11.229Z,2.25
2023-08-23T16:22:40.058Z,2.58
2023-08-23T16:25:10.141Z,2.53
2023-08-23T16:27:39.139Z,2.25
2023-08-23T16:30:09.650Z,2.47
2023-08-23T16:32:38.484Z,2.63
2023-08-23T16:35:09.717Z,2.17
2023-08-23T16:37:39.828Z,2.50
2023-08-23T16:40:10.892Z,2.25
2023-08-23T16:42:39.982Z,2.55
2023-08-23T16:45:10.205Z,3.10
2023-08-23T16:47:39.197Z,2.03
2023-08-23T16:50:10.461Z,2.40
2023-08-23T16:52:39.039Z,2.45
2023-08-23T16:55:09.126Z,2.53
2023-08-23T16:57:37.865Z,2.22
2023-08-23T17:00:10.779Z,2.72
2023-08-23T17:02:39.844Z,2.53
2023-08-23T17:05:11.151Z,2.28
2023-08-23T17:07:39.925Z,2.47
2023-08-23T17:10:09.138Z,2.25
2023-08-23T17:12:39.517Z,2.53
2023-08-23T17:15:09.497Z,2.42
2023-08-23T17:17:38.281Z,2.55
2023-08-23T17:20:10.676Z,2.40
2023-08-23T17:22:39.365Z,2.35
2023-08-23T17:25:09.140Z,2.28
2023-08-23T17:27:37.973Z,2.67
2023-08-23T17:30:07.765Z,2.33
2023-08-23T17:32:36.389Z,2.30
2023-08-23T17:35:06.248Z,2.17
2023-08-23T17:37:36.497Z,2.35
2023-08-23T17:40:06.605Z,3.10
2023-08-23T17:42:35.413Z,2.33
2023-08-23T17:45:04.210Z,2.33
2023-08-23T17:47:33.159Z,2.40
2023-08-23T17:50:01.867Z,2.47
2023-08-23T17:52:31.017Z,2.42
2023-08-23T17:55:01.390Z,2.90
2023-08-23T17:57:30.369Z,2.72
2023-08-23T17:59:59.468Z,2.40
2023-08-23T18:02:28.350Z,2.67
2023-08-23T18:04:57.044Z,2.72
2023-08-23T18:07:25.985Z,2.67
2023-08-23T18:10:01.114Z,2.38
2023-08-23T18:12:31.812Z,2.63
2023-08-23T18:15:00.417Z,2.63
2023-08-23T18:17:29.462Z,2.80
2023-08-23T18:19:59.705Z,3.17
2023-08-23T18:22:28.381Z,3.72
2023-08-23T18:24:57.134Z,2.92
2023-08-23T18:27:25.827Z,2.60
2023-08-23T18:29:56.067Z,2.60
2023-08-23T18:32:24.913Z,2.50
2023-08-23T18:34:53.714Z,2.40
2023-08-23T18:37:22.647Z,2.47
2023-08-23T18:39:51.542Z,2.60
2023-08-23T18:42:20.138Z,2.70
2023-08-23T18:44:48.925Z,2.60
2023-08-23T18:47:19.112Z,2.35
2023-08-23T18:49:47.841Z,2.45
2023-08-23T18:52:16.937Z,2.40
2023-08-23T18:54:46.074Z,2.47
2023-08-23T18:57:14.862Z,2.60
2023-08-23T18:59:43.564Z,2.20
2023-08-23T19:02:12.694Z,2.42
2023-08-23T19:04:43.109Z,2.60
2023-08-23T19:07:11.886Z,2.30
2023-08-23T19:09:40.545Z,2.80
2023-08-23T19:12:11.576Z,2.50
2023-08-23T19:14:40.748Z,2.63
2023-08-23T19:17:09.746Z,2.63
2023-08-23T19:19:38.635Z,3.00
2023-08-23T19:22:08.997Z,2.45
2023-08-23T19:24:37.769Z,2.90
2023-08-23T19:27:06.762Z,3.78
2023-08-23T19:29:35.570Z,4.15
2023-08-23T19:32:09.229Z,4.55
2023-08-23T19:34:38.187Z,4.43
2023-08-23T19:37:09.051Z,3.92
2023-08-23T19:39:38.050Z,4.00
2023-08-23T19:42:07.434Z,3.80
2023-08-23T19:44:36.078Z,4.07
2023-08-23T19:47:04.849Z,3.75
2023-08-23T19:49:34.815Z,4.10
2023-08-23T19:52:03.548Z,4.10
2023-08-23T19:54:33.692Z,4.00
2023-08-23T19:57:02.375Z,4.20
2023-08-23T19:59:31.153Z,4.40
2023-08-23T20:01:59.825Z,4.60
2023-08-23T20:04:28.569Z,4.07
2023-08-23T20:07:01.702Z,4.00
2023-08-23T20:09:30.557Z,3.88
2023-08-23T20:12:00.833Z,4.03
2023-08-23T20:14:30.864Z,3.78
2023-08-23T20:16:59.839Z,4.00
2023-08-23T20:19:28.570Z,3.63
2023-08-23T20:21:57.411Z,3.92
2023-08-23T20:24:26.089Z,4.50
2023-08-23T20:26:54.922Z,3.97
2023-08-23T20:29:25.202Z,4.05
2023-08-23T20:31:54.008Z,4.18
2023-08-23T20:34:25.214Z,4.95
2023-08-23T20:36:54.136Z,4.20
2023-08-23T20:39:22.961Z,4.60
2023-08-23T20:41:53.560Z,4.82
2023-08-23T20:44:22.692Z,4.57
2023-08-23T20:46:53.056Z,4.30
2023-08-23T20:49:23.815Z,4.50
2023-08-23T20:51:52.687Z,4.85
2023-08-23T20:54:21.430Z,4.97
2023-08-23T20:56:50.274Z,5.53
2023-08-23T20:59:19.106Z,5.10
2023-08-23T21:01:48.230Z,4.97
2023-08-23T21:04:18.661Z,4.82
2023-08-23T21:06:47.506Z,5.15
2023-08-23T21:09:17.058Z,4.88
2023-08-23T21:11:45.853Z,5.68
2023-08-23T21:14:14.686Z,4.80
2023-08-23T21:16:43.466Z,4.93
2023-08-23T21:19:12.700Z,4.55
2023-08-23T21:21:42.960Z,4.25
2023-08-23T21:24:11.755Z,5.03
2023-08-23T21:26:40.616Z,5.43
2023-08-23T21:29:09.190Z,5.07
2023-08-23T21:31:37.923Z,4.95
2023-08-23T21:34:06.740Z,5.55
2023-08-23T21:36:35.724Z,5.55
2023-08-23T21:39:06.361Z,4.72
2023-08-23T21:41:35.346Z,4.97
2023-08-23T21:44:04.589Z,4.20
2023-08-23T21:46:33.878Z,4.70
2023-08-23T21:49:04.351Z,4.57
2023-08-23T21:51:33.040Z,5.15
2023-08-23T21:54:01.826Z,4.93
2023-08-23T21:56:32.210Z,5.20
2023-08-23T21:59:01.106Z,5.45
2023-08-23T22:01:29.825Z,5.60
2023-08-23T22:03:58.497Z,5.53
2023-08-23T22:06:27.507Z,5.70
2023-08-23T22:08:56.148Z,5.38
2023-08-23T22:11:25.057Z,5.75
2023-08-23T22:13:55.635Z,5.88
2023-08-23T22:16:24.293Z,5.47
2023-08-23T22:18:53.000Z,5.63
2023-08-23T22:21:21.638Z,5.80
2023-08-23T22:23:50.478Z,6.07
2023-08-23T22:26:19.192Z,6.28
2023-08-23T22:28:47.907Z,6.10
2023-08-23T22:31:18.623Z,6.20
2023-08-23T22:33:47.644Z,5.85
2023-08-23T22:36:16.611Z,6.30
2023-08-23T22:38:45.439Z,6.20
2023-08-23T22:41:14.348Z,5.82
2023-08-23T22:43:43.069Z,6.13
2023-08-23T22:46:21.876Z,5.93
2023-08-23T22:49:00.267Z,6.75
2023-08-23T22:51:29.516Z,6.20
2023-08-23T22:53:58.526Z,6.03
2023-08-23T22:56:27.225Z,5.72
2023-08-23T22:58:56.120Z,6.22
2023-08-23T23:01:24.808Z,6.38
2023-08-23T23:03:53.819Z,6.07
2023-08-23T23:06:24.288Z,5.93
2023-08-23T23:08:53.031Z,6.35
2023-08-23T23:11:21.909Z,6.32
2023-08-23T23:13:50.649Z,6.15
2023-08-23T23:16:19.489Z,6.13
2023-08-23T23:18:49.045Z,6.30
2023-08-23T23:21:19.122Z,6.63
2023-08-23T23:23:49.424Z,6.78
2023-08-23T23:26:18.643Z,6.80
2023-08-23T23:28:47.458Z,7.20
2023-08-23T23:31:16.555Z,7.05
2023-08-23T23:33:45.727Z,6.72
2023-08-23T23:36:14.868Z,6.88
2023-08-23T23:38:44.811Z,6.97
2023-08-23T23:41:15.436Z,7.10
2023-08-23T23:43:45.758Z,7.25
2023-08-23T23:46:17.213Z,6.78
2023-08-23T23:48:46.894Z,6.68
2023-08-23T23:51:15.592Z,6.57
2023-08-23T23:53:44.385Z,6.50
2023-08-23T23:56:15.118Z,6.82
2023-08-23T23:58:44.228Z,6.63
